sensor_id;sensor_type;location;lat;lon;timestamp;pressure;altitude;pressure_sealevel;temperature;humidity
56928;BME280;60850;52.502;13.426;2023-12-20T00:02:04;100542.88;;;6.67;100.00
56928;BME280;60850;52.502;13.426;2023-12-20T00:04:31;100534.03;;;6.70;100.00
56928;BME280;60850;52.502;13.426;2023-12-20T00:06:58;100540.16;;;6.73;100.00
56928;BME280;60850;52.502;13.426;2023-12-20T00:09:25;100546.38;;;6.71;100.00
56928;BME280;60850;52.502;13.426;2023-12-20T00:11:52;100534.00;;;6.71;100.00
56928;BME280;60850;52.502;13.426;2023-12-20T00:14:19;100527.91;;;6.65;100.00
56928;BME280;60850;52.502;13.426;2023-12-20T00:16:47;100534.97;;;6.66;100.00
56928;BME280;60850;52.502;13.426;2023-12-20T00:19:14;100520.03;;;6.58;100.00
56928;BME280;60850;52.502;13.426;2023-12-20T00:21:41;100528.81;;;6.64;100.00
56928;BME280;60850;52.502;13.426;2023-12-20T00:24:08;100520.91;;;6.60;100.00
56928;BME280;60850;52.502;13.426;2023-12-20T00:26:35;100520.84;;;6.65;100.00
56928;BME280;60850;52.502;13.426;2023-12-20T00:29:02;100519.13;;;6.63;100.00
56928;BME280;60850;52.502;13.426;2023-12-20T00:31:29;100513.75;;;6.67;100.00
56928;BME280;60850;52.502;13.426;2023-12-20T00:33:57;100513.75;;;6.67;100.00
56928;BME280;60850;52.502;13.426;2023-12-20T00:36:24;100513.91;;;6.56;100.00
56928;BME280;60850;52.502;13.426;2023-12-20T00:38:51;100505.09;;;6.54;100.00
56928;BME280;60850;52.502;13.426;2023-12-20T00:41:18;100510.34;;;6.57;100.00
56928;BME280;60850;52.502;13.426;2023-12-20T00:43:45;100507.63;;;6.62;100.00
56928;BME280;60850;52.502;13.426;2023-12-20T00:46:12;100512.03;;;6.65;100.00
56928;BME280;60850;52.502;13.426;2023-12-20T00:48:39;100511.13;;;6.66;100.00
56928;BME280;60850;52.502;13.426;2023-12-20T00:51:09;100502.38;;;6.59;100.00
56928;BME280;60850;52.502;13.426;2023-12-20T00:53:36;100515.56;;;6.64;100.00
56928;BME280;60850;52.502;13.426;2023-12-20T00:56:03;100504.03;;;6.66;100.00
56928;BME280;60850;52.502;13.426;2023-12-20T00:58:30;100496.94;;;6.70;100.00
56928;BME280;60850;52.502;13.426;2023-12-20T01:00:58;100504.91;;;6.67;100.00
56928;BME280;60850;52.502;13.426;2023-12-20T01:03:25;100514.63;;;6.66;100.00
56928;BME280;60850;52.502;13.426;2023-12-20T01:05:52;100510.19;;;6.70;100.00
56928;BME280;60850;52.502;13.426;2023-12-20T01:08:20;100506.84;;;6.57;100.00
56928;BME280;60850;52.502;13.426;2023-12-20T01:10:48;100516.50;;;6.59;100.00
56928;BME280;60850;52.502;13.426;2023-12-20T01:13:14;100524.50;;;6.56;100.00
56928;BME280;60850;52.502;13.426;2023-12-20T01:15:42;100517.34;;;6.61;100.00
56928;BME280;60850;52.502;13.426;2023-12-20T01:18:08;100515.50;;;6.67;100.00
56928;BME280;60850;52.502;13.426;2023-12-20T01:20:36;100515.50;;;6.67;100.00
56928;BME280;60850;52.502;13.426;2023-12-20T01:23:03;100508.50;;;6.64;100.00
56928;BME280;60850;52.502;13.426;2023-12-20T01:25:31;100511.09;;;6.67;100.00
56928;BME280;60850;52.502;13.426;2023-12-20T01:27:58;100507.66;;;6.60;100.00
56928;BME280;60850;52.502;13.426;2023-12-20T01:30:25;100514.75;;;6.58;100.00
56928;BME280;60850;52.502;13.426;2023-12-20T01:32:52;100513.84;;;6.59;100.00
56928;BME280;60850;52.502;13.426;2023-12-20T01:35:20;100511.28;;;6.53;100.00
56928;BME280;60850;52.502;13.426;2023-12-20T01:37:47;100515.72;;;6.51;100.00
56928;BME280;60850;52.502;13.426;2023-12-20T01:40:14;100511.16;;;6.61;100.00
56928;BME280;60850;52.502;13.426;2023-12-20T01:42:42;100515.59;;;6.60;100.00
56928;BME280;60850;52.502;13.426;2023-12-20T01:45:09;100511.19;;;6.63;100.00
56928;BME280;60850;52.502;13.426;2023-12-20T01:47:36;100505.78;;;6.67;100.00
56928;BME280;60850;52.502;13.426;2023-12-20T01:50:06;100508.56;;;6.59;100.00
56928;BME280;60850;52.502;13.426;2023-12-20T01:52:34;100500.53;;;6.66;100.00
56928;BME280;60850;52.502;13.426;2023-12-20T01:55:02;100498.84;;;6.60;100.00
56928;BME280;60850;52.502;13.426;2023-12-20T01:57:32;100505.81;;;6.66;100.00
56928;BME280;60850;52.502;13.426;2023-12-20T02:00:01;100498.72;;;6.68;100.00
56928;BME280;60850;52.502;13.426;2023-12-20T02:02:29;100504.91;;;6.67;100.00
56928;BME280;60850;52.502;13.426;2023-12-20T02:04:56;100506.63;;;6.71;100.00
56928;BME280;60850;52.502;13.426;2023-12-20T02:07:23;100503.00;;;6.78;100.00
56928;BME280;60850;52.502;13.426;2023-12-20T02:09:51;100491.53;;;6.77;100.00
56928;BME280;60850;52.502;13.426;2023-12-20T02:12:18;100486.31;;;6.71;100.00
56928;BME280;60850;52.502;13.426;2023-12-20T02:14:45;100494.13;;;6.80;100.00
56928;BME280;60850;52.502;13.426;2023-12-20T02:17:14;100494.19;;;6.76;100.00
56928;BME280;60850;52.502;13.426;2023-12-20T02:19:41;100494.19;;;6.76;100.00
56928;BME280;60850;52.502;13.426;2023-12-20T02:22:10;100504.00;;;6.71;100.00
56928;BME280;60850;52.502;13.426;2023-12-20T02:24:37;100499.63;;;6.67;100.00
56928;BME280;60850;52.502;13.426;2023-12-20T02:27:06;100488.13;;;6.68;100.00
56928;BME280;60850;52.502;13.426;2023-12-20T02:29:34;100487.22;;;6.69;100.00
56928;BME280;60850;52.502;13.426;2023-12-20T02:32:01;100485.38;;;6.74;100.00
56928;BME280;60850;52.502;13.426;2023-12-20T02:34:29;100479.38;;;6.64;100.00
56928;BME280;60850;52.502;13.426;2023-12-20T02:36:56;100493.41;;;6.68;100.00
56928;BME280;60850;52.502;13.426;2023-12-20T02:39:24;100491.66;;;6.70;100.00
56928;BME280;60850;52.502;13.426;2023-12-20T02:41:51;100475.78;;;6.67;100.00
56928;BME280;60850;52.502;13.426;2023-12-20T02:44:18;100477.47;;;6.72;100.00
56928;BME280;60850;52.502;13.426;2023-12-20T02:46:45;100482.72;;;6.75;100.00
56928;BME280;60850;52.502;13.426;2023-12-20T02:49:12;100475.63;;;6.76;100.00
56928;BME280;60850;52.502;13.426;2023-12-20T02:51:39;100479.34;;;6.66;100.00
56928;BME280;60850;52.502;13.426;2023-12-20T02:54:06;100481.84;;;6.75;100.00
56928;BME280;60850;52.502;13.426;2023-12-20T02:56:35;100484.44;;;6.76;100.00
56928;BME280;60850;52.502;13.426;2023-12-20T02:59:02;100485.34;;;6.75;100.00
56928;BME280;60850;52.502;13.426;2023-12-20T03:01:31;100480.22;;;6.65;100.00
56928;BME280;60850;52.502;13.426;2023-12-20T03:03:58;100486.50;;;6.59;100.00
56928;BME280;60850;52.502;13.426;2023-12-20T03:06:25;100484.56;;;6.70;100.00
56928;BME280;60850;52.502;13.426;2023-12-20T03:08:52;100484.56;;;6.70;100.00
56928;BME280;60850;52.502;13.426;2023-12-20T03:11:19;100485.47;;;6.68;100.00
56928;BME280;60850;52.502;13.426;2023-12-20T03:13:47;100498.63;;;6.74;100.00
56928;BME280;60850;52.502;13.426;2023-12-20T03:16:14;100487.28;;;6.66;100.00
56928;BME280;60850;52.502;13.426;2023-12-20T03:18:42;100485.56;;;6.61;100.00
56928;BME280;60850;52.502;13.426;2023-12-20T03:21:09;100487.28;;;6.66;100.00
56928;BME280;60850;52.502;13.426;2023-12-20T03:23:36;100496.25;;;6.57;100.00
56928;BME280;60850;52.502;13.426;2023-12-20T03:26:03;100495.31;;;6.59;100.00
56928;BME280;60850;52.502;13.426;2023-12-20T03:28:30;100493.63;;;6.55;100.00
56928;BME280;60850;52.502;13.426;2023-12-20T03:30:58;100498.97;;;6.51;100.00
56928;BME280;60850;52.502;13.426;2023-12-20T03:33:27;100485.72;;;6.51;100.00
56928;BME280;60850;52.502;13.426;2023-12-20T03:35:53;100493.69;;;6.49;100.00
56928;BME280;60850;52.502;13.426;2023-12-20T03:38:21;100489.25;;;6.51;100.00
56928;BME280;60850;52.502;13.426;2023-12-20T03:40:49;100499.97;;;6.42;100.00
56928;BME280;60850;52.502;13.426;2023-12-20T03:43:16;100501.75;;;6.40;100.00
56928;BME280;60850;52.502;13.426;2023-12-20T03:45:43;100504.38;;;6.43;100.00
56928;BME280;60850;52.502;13.426;2023-12-20T03:48:11;100486.63;;;6.50;100.00
56928;BME280;60850;52.502;13.426;2023-12-20T03:50:38;100485.88;;;6.42;100.00
56928;BME280;60850;52.502;13.426;2023-12-20T03:53:05;100490.19;;;6.46;100.00
56928;BME280;60850;52.502;13.426;2023-12-20T03:55:32;100492.91;;;6.41;100.00
56928;BME280;60850;52.502;13.426;2023-12-20T03:57:59;100480.56;;;6.40;100.00
56928;BME280;60850;52.502;13.426;2023-12-20T04:00:26;100479.84;;;6.29;100.00
56928;BME280;60850;52.502;13.426;2023-12-20T04:02:53;100473.69;;;6.27;100.00
56928;BME280;60850;52.502;13.426;2023-12-20T04:05:21;100471.00;;;6.30;100.00
56928;BME280;60850;52.502;13.426;2023-12-20T04:07:48;100472.81;;;6.26;100.00
56928;BME280;60850;52.502;13.426;2023-12-20T04:10:16;100473.72;;;6.24;100.00
56928;BME280;60850;52.502;13.426;2023-12-20T04:12:43;100470.34;;;6.14;100.00
56928;BME280;60850;52.502;13.426;2023-12-20T04:15:09;100467.63;;;6.19;100.00
56928;BME280;60850;52.502;13.426;2023-12-20T04:17:37;100456.13;;;6.21;100.00
56928;BME280;60850;52.502;13.426;2023-12-20T04:20:05;100457.91;;;6.19;100.00
56928;BME280;60850;52.502;13.426;2023-12-20T04:22:34;100463.28;;;6.15;100.00
56928;BME280;60850;52.502;13.426;2023-12-20T04:25:00;100459.75;;;6.13;100.00
56928;BME280;60850;52.502;13.426;2023-12-20T04:27:28;100456.31;;;6.08;100.00
56928;BME280;60850;52.502;13.426;2023-12-20T04:29:54;100463.34;;;6.09;100.00
56928;BME280;60850;52.502;13.426;2023-12-20T04:32:22;100459.09;;;5.95;100.00
56928;BME280;60850;52.502;13.426;2023-12-20T04:34:48;100451.09;;;5.98;100.00
56928;BME280;60850;52.502;13.426;2023-12-20T04:37:15;100446.78;;;5.90;100.00
56928;BME280;60850;52.502;13.426;2023-12-20T04:39:44;100461.06;;;5.78;100.00
56928;BME280;60850;52.502;13.426;2023-12-20T04:42:11;100463.66;;;5.79;100.00
56928;BME280;60850;52.502;13.426;2023-12-20T04:44:37;100466.34;;;5.76;100.00
56928;BME280;60850;52.502;13.426;2023-12-20T04:47:05;100462.84;;;5.73;100.00
56928;BME280;60850;52.502;13.426;2023-12-20T04:49:31;100461.19;;;5.64;100.00
56928;BME280;60850;52.502;13.426;2023-12-20T04:51:58;100458.59;;;5.60;100.00
56928;BME280;60850;52.502;13.426;2023-12-20T04:54:25;100462.22;;;5.51;100.00
56928;BME280;60850;52.502;13.426;2023-12-20T04:56:54;100452.53;;;5.48;100.00
56928;BME280;60850;52.502;13.426;2023-12-20T04:59:21;100443.75;;;5.46;100.00
56928;BME280;60850;52.502;13.426;2023-12-20T05:01:48;100455.19;;;5.50;100.00
56928;BME280;60850;52.502;13.426;2023-12-20T05:04:14;100458.72;;;5.47;100.00
56928;BME280;60850;52.502;13.426;2023-12-20T05:06:42;100466.56;;;5.55;100.00
56928;BME280;60850;52.502;13.426;2023-12-20T05:09:08;100463.91;;;5.57;100.00
56928;BME280;60850;52.502;13.426;2023-12-20T05:11:36;100477.03;;;5.66;100.00
56928;BME280;60850;52.502;13.426;2023-12-20T05:14:04;100468.22;;;5.67;100.00
56928;BME280;60850;52.502;13.426;2023-12-20T05:16:31;100463.75;;;5.70;100.00
56928;BME280;60850;52.502;13.426;2023-12-20T05:18:58;100474.34;;;5.72;100.00
56928;BME280;60850;52.502;13.426;2023-12-20T05:21:26;100462.03;;;5.68;100.00
56928;BME280;60850;52.502;13.426;2023-12-20T05:23:53;100468.09;;;5.76;100.00
56928;BME280;60850;52.502;13.426;2023-12-20T05:26:20;100462.06;;;5.63;100.00
56928;BME280;60850;52.502;13.426;2023-12-20T05:28:47;100465.69;;;5.58;100.00
56928;BME280;60850;52.502;13.426;2023-12-20T05:31:15;100466.59;;;5.54;100.00
56928;BME280;60850;52.502;13.426;2023-12-20T05:33:42;100471.91;;;5.49;100.00
56928;BME280;60850;52.502;13.426;2023-12-20T05:36:09;100471.16;;;5.35;100.00
56928;BME280;60850;52.502;13.426;2023-12-20T05:38:39;100464.22;;;5.26;100.00
56928;BME280;60850;52.502;13.426;2023-12-20T05:41:06;100456.34;;;5.18;100.00
56928;BME280;60850;52.502;13.426;2023-12-20T05:43:33;100464.41;;;5.08;100.00
56928;BME280;60850;52.502;13.426;2023-12-20T05:46:00;100461.78;;;5.03;100.00
56928;BME280;60850;52.502;13.426;2023-12-20T05:48:28;100460.91;;;5.00;100.00
56928;BME280;60850;52.502;13.426;2023-12-20T05:50:55;100457.47;;;4.94;100.00
56928;BME280;60850;52.502;13.426;2023-12-20T05:53:22;100459.25;;;4.89;100.00
56928;BME280;60850;52.502;13.426;2023-12-20T05:55:49;100446.03;;;4.89;100.00
56928;BME280;60850;52.502;13.426;2023-12-20T05:58:16;100450.50;;;4.81;100.00
56928;BME280;60850;52.502;13.426;2023-12-20T06:00:43;100452.22;;;4.85;100.00
56928;BME280;60850;52.502;13.426;2023-12-20T06:03:10;100460.22;;;4.78;100.00
56928;BME280;60850;52.502;13.426;2023-12-20T06:05:38;100454.94;;;4.78;100.00
56928;BME280;60850;52.502;13.426;2023-12-20T06:08:05;100451.47;;;4.71;100.00
56928;BME280;60850;52.502;13.426;2023-12-20T06:10:33;100453.28;;;4.66;100.00
56928;BME280;60850;52.502;13.426;2023-12-20T06:12:59;100446.19;;;4.71;100.00
56928;BME280;60850;52.502;13.426;2023-12-20T06:15:26;100442.63;;;4.72;100.00
56928;BME280;60850;52.502;13.426;2023-12-20T06:17:53;100445.31;;;4.69;100.00
56928;BME280;60850;52.502;13.426;2023-12-20T06:20:20;100435.63;;;4.69;100.00
56928;BME280;60850;52.502;13.426;2023-12-20T06:22:48;100436.50;;;4.73;100.00
56928;BME280;60850;52.502;13.426;2023-12-20T06:25:16;100430.34;;;4.71;100.00
56928;BME280;60850;52.502;13.426;2023-12-20T06:27:43;100430.22;;;4.85;100.00
56928;BME280;60850;52.502;13.426;2023-12-20T06:30:10;100440.75;;;4.91;100.00
56928;BME280;60850;52.502;13.426;2023-12-20T06:32:37;100444.22;;;4.96;100.00
56928;BME280;60850;52.502;13.426;2023-12-20T06:35:06;100449.59;;;4.84;100.00
56928;BME280;60850;52.502;13.426;2023-12-20T06:37:33;100448.78;;;4.77;100.00
56928;BME280;60850;52.502;13.426;2023-12-20T06:40:01;100448.78;;;4.77;100.00
56928;BME280;60850;52.502;13.426;2023-12-20T06:42:28;100446.13;;;4.77;100.00
56928;BME280;60850;52.502;13.426;2023-12-20T06:44:55;100447.03;;;4.79;100.00
56928;BME280;60850;52.502;13.426;2023-12-20T06:47:22;100441.75;;;4.79;100.00
56928;BME280;60850;52.502;13.426;2023-12-20T06:49:49;100442.59;;;4.81;100.00
56928;BME280;60850;52.502;13.426;2023-12-20T06:52:16;100442.59;;;4.78;100.00
56928;BME280;60850;52.502;13.426;2023-12-20T06:54:43;100439.09;;;4.79;100.00
56928;BME280;60850;52.502;13.426;2023-12-20T06:57:11;100434.66;;;4.81;100.00
56928;BME280;60850;52.502;13.426;2023-12-20T06:59:39;100432.88;;;4.83;100.00
56928;BME280;60850;52.502;13.426;2023-12-20T07:02:06;100437.28;;;4.84;100.00
56928;BME280;60850;52.502;13.426;2023-12-20T07:04:33;100439.00;;;4.88;100.00
56928;BME280;60850;52.502;13.426;2023-12-20T07:07:00;100439.84;;;4.92;100.00
56928;BME280;60850;52.502;13.426;2023-12-20T07:09:27;100431.06;;;4.91;100.00
56928;BME280;60850;52.502;13.426;2023-12-20T07:11:54;100431.91;;;4.96;100.00
56928;BME280;60850;52.502;13.426;2023-12-20T07:14:22;100440.72;;;4.95;100.00
56928;BME280;60850;52.502;13.426;2023-12-20T07:16:49;100424.00;;;4.93;100.00
56928;BME280;60850;52.502;13.426;2023-12-20T07:19:16;100432.75;;;4.99;100.00
56928;BME280;60850;52.502;13.426;2023-12-20T07:21:43;100429.16;;;5.06;100.00
56928;BME280;60850;52.502;13.426;2023-12-20T07:24:10;100424.75;;;5.06;100.00
56928;BME280;60850;52.502;13.426;2023-12-20T07:26:37;100435.38;;;5.03;100.00
56928;BME280;60850;52.502;13.426;2023-12-20T07:29:05;100436.16;;;5.13;100.00
56928;BME280;60850;52.502;13.426;2023-12-20T07:31:33;100422.06;;;5.11;100.00
56928;BME280;60850;52.502;13.426;2023-12-20T07:34:00;100426.50;;;5.10;100.00
56928;BME280;60850;52.502;13.426;2023-12-20T07:36:27;100421.19;;;5.15;100.00
56928;BME280;60850;52.502;13.426;2023-12-20T07:38:54;100422.03;;;5.14;100.00
56928;BME280;60850;52.502;13.426;2023-12-20T07:41:21;100433.53;;;5.11;100.00
56928;BME280;60850;52.502;13.426;2023-12-20T07:43:49;100429.09;;;5.15;100.00
56928;BME280;60850;52.502;13.426;2023-12-20T07:46:16;100418.53;;;5.13;100.00
56928;BME280;60850;52.502;13.426;2023-12-20T07:48:46;100419.41;;;5.15;100.00
56928;BME280;60850;52.502;13.426;2023-12-20T07:51:12;100415.88;;;5.15;100.00
56928;BME280;60850;52.502;13.426;2023-12-20T07:53:40;100414.13;;;5.12;100.00
56928;BME280;60850;52.502;13.426;2023-12-20T07:56:14;100409.72;;;5.13;100.00
56928;BME280;60850;52.502;13.426;2023-12-20T07:58:41;100400.03;;;5.13;100.00
56928;BME280;60850;52.502;13.426;2023-12-20T08:01:08;100407.97;;;5.15;100.00
56928;BME280;60850;52.502;13.426;2023-12-20T08:03:35;100418.41;;;5.26;100.00
56928;BME280;60850;52.502;13.426;2023-12-20T08:06:04;100406.13;;;5.23;100.00
56928;BME280;60850;52.502;13.426;2023-12-20T08:08:31;100413.97;;;5.28;100.00
56928;BME280;60850;52.502;13.426;2023-12-20T08:10:58;100417.50;;;5.27;100.00
56928;BME280;60850;52.502;13.426;2023-12-20T08:13:26;100421.03;;;5.29;100.00
56928;BME280;60850;52.502;13.426;2023-12-20T08:15:53;100415.78;;;5.24;100.00
56928;BME280;60850;52.502;13.426;2023-12-20T08:18:21;100413.09;;;5.30;100.00
56928;BME280;60850;52.502;13.426;2023-12-20T08:20:49;100413.03;;;5.33;100.00
56928;BME280;60850;52.502;13.426;2023-12-20T08:23:20;100414.78;;;5.37;100.00
56928;BME280;60850;52.502;13.426;2023-12-20T08:25:47;100417.38;;;5.40;100.00
56928;BME280;60850;52.502;13.426;2023-12-20T08:28:14;100428.00;;;5.37;100.00
56928;BME280;60850;52.502;13.426;2023-12-20T08:30:41;100420.06;;;5.37;100.00
56928;BME280;60850;52.502;13.426;2023-12-20T08:33:08;100413.94;;;5.32;100.00
56928;BME280;60850;52.502;13.426;2023-12-20T08:35:38;100418.31;;;5.36;100.00
56928;BME280;60850;52.502;13.426;2023-12-20T08:38:05;100408.59;;;5.38;100.00
56928;BME280;60850;52.502;13.426;2023-12-20T08:40:33;100408.47;;;5.50;100.00
56928;BME280;60850;52.502;13.426;2023-12-20T08:43:01;100397.78;;;5.57;100.00
56928;BME280;60850;52.502;13.426;2023-12-20T08:45:28;100395.97;;;5.62;100.00
56928;BME280;60850;52.502;13.426;2023-12-20T08:47:55;100396.78;;;5.68;100.00
56928;BME280;60850;52.502;13.426;2023-12-20T08:50:22;100397.72;;;5.66;100.00
56928;BME280;60850;52.502;13.426;2023-12-20T08:52:49;100396.66;;;5.79;100.00
56928;BME280;60850;52.502;13.426;2023-12-20T08:55:16;100387.78;;;5.83;100.00
56928;BME280;60850;52.502;13.426;2023-12-20T08:57:45;100385.94;;;5.90;100.00
56928;BME280;60850;52.502;13.426;2023-12-20T09:00:13;100386.00;;;5.85;100.00
56928;BME280;60850;52.502;13.426;2023-12-20T09:02:41;100383.44;;;5.79;100.00
56928;BME280;60850;52.502;13.426;2023-12-20T09:05:09;100374.59;;;5.80;100.00
56928;BME280;60850;52.502;13.426;2023-12-20T09:07:36;100383.50;;;5.74;100.00
56928;BME280;60850;52.502;13.426;2023-12-20T09:10:03;100386.00;;;5.85;100.00
56928;BME280;60850;52.502;13.426;2023-12-20T09:12:30;100387.59;;;5.98;100.00
56928;BME280;60850;52.502;13.426;2023-12-20T09:14:59;100390.06;;;6.14;100.00
56928;BME280;60850;52.502;13.426;2023-12-20T09:17:28;100388.09;;;6.26;100.00
56928;BME280;60850;52.502;13.426;2023-12-20T09:19:55;100384.56;;;6.26;100.00
56928;BME280;60850;52.502;13.426;2023-12-20T09:22:22;100378.59;;;6.15;100.00
56928;BME280;60850;52.502;13.426;2023-12-20T09:24:49;100378.69;;;6.07;100.00
56928;BME280;60850;52.502;13.426;2023-12-20T09:27:16;100367.19;;;6.10;100.00
56928;BME280;60850;52.502;13.426;2023-12-20T09:29:43;100365.38;;;6.13;100.00
56928;BME280;60850;52.502;13.426;2023-12-20T09:32:11;100376.78;;;6.17;100.00
56928;BME280;60850;52.502;13.426;2023-12-20T09:34:38;100376.91;;;6.08;100.00
56928;BME280;60850;52.502;13.426;2023-12-20T09:37:07;100369.03;;;6.03;100.00
56928;BME280;60850;52.502;13.426;2023-12-20T09:39:34;100368.00;;;6.15;100.00
56928;BME280;60850;52.502;13.426;2023-12-20T09:42:02;100353.81;;;6.19;100.00
56928;BME280;60850;52.502;13.426;2023-12-20T09:44:32;100370.59;;;6.18;100.00
56928;BME280;60850;52.502;13.426;2023-12-20T09:47:03;100380.34;;;6.13;100.00
56928;BME280;60850;52.502;13.426;2023-12-20T09:49:32;100368.88;;;6.15;100.00
56928;BME280;60850;52.502;13.426;2023-12-20T09:52:00;100365.34;;;6.15;100.00
56928;BME280;60850;52.502;13.426;2023-12-20T09:54:28;100368.00;;;6.15;100.00
56928;BME280;60850;52.502;13.426;2023-12-20T09:57:01;100358.31;;;6.14;100.00
56928;BME280;60850;52.502;13.426;2023-12-20T09:59:28;100367.13;;;6.14;100.00
56928;BME280;60850;52.502;13.426;2023-12-20T10:01:56;100367.09;;;6.16;100.00
56928;BME280;60850;52.502;13.426;2023-12-20T10:04:23;100356.50;;;6.16;100.00
56928;BME280;60850;52.502;13.426;2023-12-20T10:06:53;100350.34;;;6.15;100.00
56928;BME280;60850;52.502;13.426;2023-12-20T10:09:21;100329.97;;;6.20;100.00
56928;BME280;60850;52.502;13.426;2023-12-20T10:11:59;100332.59;;;6.22;100.00
56928;BME280;60850;52.502;13.426;2023-12-20T10:14:26;100330.78;;;6.24;100.00
56928;BME280;60850;52.502;13.426;2023-12-20T10:16:53;100319.34;;;6.23;100.00
56928;BME280;60850;52.502;13.426;2023-12-20T10:19:21;100313.19;;;6.20;100.00
56928;BME280;60850;52.502;13.426;2023-12-20T10:21:48;100319.38;;;6.19;100.00
56928;BME280;60850;52.502;13.426;2023-12-20T10:24:18;100320.31;;;6.16;100.00
56928;BME280;60850;52.502;13.426;2023-12-20T10:26:45;100314.09;;;6.20;100.00
56928;BME280;60850;52.502;13.426;2023-12-20T10:29:12;100315.75;;;6.26;100.00
56928;BME280;60850;52.502;13.426;2023-12-20T10:31:39;100310.50;;;6.24;100.00
56928;BME280;60850;52.502;13.426;2023-12-20T10:34:07;100301.66;;;6.25;100.00
56928;BME280;60850;52.502;13.426;2023-12-20T10:36:35;100302.50;;;6.29;100.00
56928;BME280;60850;52.502;13.426;2023-12-20T10:39:01;100292.03;;;6.20;100.00
56928;BME280;60850;52.502;13.426;2023-12-20T10:41:32;100290.16;;;6.28;100.00
56928;BME280;60850;52.502;13.426;2023-12-20T10:44:01;100279.50;;;6.31;100.00
56928;BME280;60850;52.502;13.426;2023-12-20T10:46:30;100267.97;;;6.35;100.00
56928;BME280;60850;52.502;13.426;2023-12-20T10:48:58;100273.09;;;6.44;100.00
56928;BME280;60850;52.502;13.426;2023-12-20T10:51:26;100269.59;;;6.44;100.00
56928;BME280;60850;52.502;13.426;2023-12-20T10:53:55;100259.00;;;6.44;100.00
56928;BME280;60850;52.502;13.426;2023-12-20T10:56:23;100265.16;;;6.44;100.00
56928;BME280;60850;52.502;13.426;2023-12-20T10:58:52;100259.06;;;6.39;100.00
56928;BME280;60850;52.502;13.426;2023-12-20T11:01:19;100238.84;;;6.35;100.00
56928;BME280;60850;52.502;13.426;2023-12-20T11:03:49;100252.06;;;6.37;100.00
56928;BME280;60850;52.502;13.426;2023-12-20T11:06:27;100247.56;;;6.40;100.00
56928;BME280;60850;52.502;13.426;2023-12-20T11:09:07;100233.38;;;6.44;100.00
56928;BME280;60850;52.502;13.426;2023-12-20T11:11:49;100233.34;;;6.46;100.00
56928;BME280;60850;52.502;13.426;2023-12-20T11:14:24;100235.22;;;6.39;100.00
56928;BME280;60850;52.502;13.426;2023-12-20T11:17:05;100233.41;;;6.41;100.00
56928;BME280;60850;52.502;13.426;2023-12-20T11:19:32;100235.13;;;6.45;100.00
56928;BME280;60850;52.502;13.426;2023-12-20T11:21:59;100223.72;;;6.42;100.00
56928;BME280;60850;52.502;13.426;2023-12-20T11:24:26;100215.78;;;6.40;100.00
56928;BME280;60850;52.502;13.426;2023-12-20T11:26:55;100208.78;;;6.38;100.00
56928;BME280;60850;52.502;13.426;2023-12-20T11:29:34;100208.72;;;6.42;100.00
56928;BME280;60850;52.502;13.426;2023-12-20T11:32:03;100204.28;;;6.43;100.00
56928;BME280;60850;52.502;13.426;2023-12-20T11:34:33;100198.13;;;6.42;100.00
56928;BME280;60850;52.502;13.426;2023-12-20T11:37:02;100196.59;;;6.29;100.00
56928;BME280;60850;52.502;13.426;2023-12-20T11:39:30;100187.78;;;6.28;100.00
56928;BME280;60850;52.502;13.426;2023-12-20T11:42:04;100186.81;;;6.32;100.00
56928;BME280;60850;52.502;13.426;2023-12-20T11:44:31;100175.34;;;6.32;100.00
56928;BME280;60850;52.502;13.426;2023-12-20T11:47:00;100166.47;;;6.36;100.00
56928;BME280;60850;52.502;13.426;2023-12-20T11:49:27;100169.06;;;6.38;100.00
56928;BME280;60850;52.502;13.426;2023-12-20T11:51:55;100165.59;;;6.36;100.00
56928;BME280;60850;52.502;13.426;2023-12-20T11:54:21;100158.66;;;6.28;100.00
56928;BME280;60850;52.502;13.426;2023-12-20T11:56:49;100159.28;;;6.41;100.00
56928;BME280;60850;52.502;13.426;2023-12-20T11:59:16;100163.66;;;6.44;100.00
56928;BME280;60850;52.502;13.426;2023-12-20T12:01:48;100160.25;;;6.37;100.00
56928;BME280;60850;52.502;13.426;2023-12-20T12:04:16;100144.22;;;6.45;100.00
56928;BME280;60850;52.502;13.426;2023-12-20T12:06:44;100130.19;;;6.40;100.00
56928;BME280;60850;52.502;13.426;2023-12-20T12:09:11;100115.91;;;6.50;100.00
56928;BME280;60850;52.502;13.426;2023-12-20T12:11:38;100110.59;;;6.48;100.00
56928;BME280;60850;52.502;13.426;2023-12-20T12:14:07;100115.03;;;6.49;100.00
56928;BME280;60850;52.502;13.426;2023-12-20T12:16:34;100103.66;;;6.44;100.00
56928;BME280;60850;52.502;13.426;2023-12-20T12:19:01;100095.78;;;6.40;100.00
56928;BME280;60850;52.502;13.426;2023-12-20T12:21:29;100089.56;;;6.41;100.00
56928;BME280;60850;52.502;13.426;2023-12-20T12:24:06;100081.47;;;6.48;100.00
56928;BME280;60850;52.502;13.426;2023-12-20T12:26:33;100080.56;;;6.51;100.00
56928;BME280;60850;52.502;13.426;2023-12-20T12:29:00;100081.63;;;6.42;100.00
56928;BME280;60850;52.502;13.426;2023-12-20T12:31:28;100086.84;;;6.45;100.00
56928;BME280;60850;52.502;13.426;2023-12-20T12:33:56;100080.00;;;6.35;100.00
56928;BME280;60850;52.502;13.426;2023-12-20T12:36:23;100064.34;;;6.23;100.00
56928;BME280;60850;52.502;13.426;2023-12-20T12:38:51;100060.00;;;6.20;100.00
56928;BME280;60850;52.502;13.426;2023-12-20T12:41:18;100057.47;;;6.14;100.00
56928;BME280;60850;52.502;13.426;2023-12-20T12:43:45;100060.97;;;6.16;100.00